createdAt,value
2018-04-28T00:00:15.175Z,1.65
2018-04-28T00:02:44.065Z,2.42
2018-04-28T00:05:13.052Z,1.65
2018-04-28T00:07:41.940Z,1.50
2018-04-28T00:10:10.855Z,1.67
2018-04-28T00:12:39.739Z,1.30
2018-04-28T00:15:08.630Z,1.20
2018-04-28T00:17:37.751Z,1.25
2018-04-28T00:20:06.656Z,1.58
2018-04-28T00:22:52.526Z,1.62
2018-04-28T00:25:21.416Z,2.12
2018-04-28T00:28:06.031Z,1.45
2018-04-28T00:30:34.922Z,1.50
2018-04-28T00:33:03.812Z,1.42
2018-04-28T00:35:32.702Z,1.55
2018-04-28T00:38:01.713Z,1.30
2018-04-28T00:40:36.494Z,2.00
2018-04-28T00:43:05.382Z,1.33
2018-04-28T00:45:39.968Z,1.80
2018-04-28T00:48:09.787Z,1.80
2018-04-28T00:50:39.596Z,1.60
2018-04-28T00:53:08.511Z,1.20
2018-04-28T00:55:38.260Z,1.70
2018-04-28T00:58:10.118Z,1.95
2018-04-28T01:00:40.962Z,1.55
2018-04-28T01:03:09.846Z,1.58
2018-04-28T01:05:40.587Z,1.80
2018-04-28T01:08:09.483Z,1.65
2018-04-28T01:10:38.394Z,1.77
2018-04-28T01:13:07.327Z,1.42
2018-04-28T01:15:36.222Z,1.37
2018-04-28T01:18:05.886Z,1.55
2018-04-28T01:20:51.418Z,1.42
2018-04-28T01:23:27.107Z,1.75
2018-04-28T01:25:57.019Z,1.80
2018-04-28T01:28:25.910Z,1.52
2018-04-28T01:30:56.520Z,2.05
2018-04-28T01:33:31.255Z,0.90
2018-04-28T01:36:05.895Z,1.98
2018-04-28T01:38:34.782Z,1.67
2018-04-28T01:41:09.515Z,1.48
2018-04-28T01:43:38.748Z,1.37
2018-04-28T01:46:17.674Z,1.73
2018-04-28T01:48:47.579Z,1.70
2018-04-28T01:51:22.306Z,1.48
2018-04-28T01:54:06.099Z,1.67
2018-04-28T01:56:35.929Z,2.00
2018-04-28T01:59:04.816Z,1.83
2018-04-28T02:01:39.723Z,1.90
2018-04-28T02:04:11.441Z,1.50
2018-04-28T02:06:40.419Z,1.60
2018-04-28T02:09:09.311Z,2.35
2018-04-28T02:11:39.085Z,1.98
2018-04-28T02:14:13.791Z,1.62
2018-04-28T02:16:42.723Z,1.90
2018-04-28T02:19:16.239Z,1.50
2018-04-28T02:21:47.822Z,2.33
2018-04-28T02:24:34.531Z,2.05
2018-04-28T02:27:06.219Z,1.83
2018-04-28T02:29:35.154Z,1.83
2018-04-28T02:32:12.634Z,1.30
2018-04-28T02:34:44.636Z,2.05
2018-04-28T02:37:30.389Z,1.80
2018-04-28T02:40:05.083Z,1.92
2018-04-28T02:42:48.851Z,1.58
2018-04-28T02:45:21.519Z,1.55
2018-04-28T02:47:51.235Z,2.22
2018-04-28T02:50:21.979Z,1.67
2018-04-28T02:52:50.863Z,1.80
2018-04-28T02:55:19.754Z,1.85
2018-04-28T02:57:54.695Z,2.08
2018-04-28T03:00:24.649Z,1.70
2018-04-28T03:02:54.334Z,1.70
2018-04-28T03:05:38.102Z,1.50
2018-04-28T03:08:08.831Z,1.35
2018-04-28T03:10:43.704Z,1.75
2018-04-28T03:13:12.612Z,1.55
2018-04-28T03:15:41.810Z,1.87
2018-04-28T03:18:10.697Z,1.90
2018-04-28T03:20:40.495Z,1.67
2018-04-28T03:23:09.463Z,1.35
2018-04-28T03:25:39.130Z,1.52
2018-04-28T03:28:08.020Z,1.65
2018-04-28T03:30:37.055Z,1.75
2018-04-28T03:33:13.258Z,1.35
2018-04-28T03:35:42.204Z,1.62
2018-04-28T03:38:21.015Z,1.92
2018-04-28T03:40:49.951Z,1.50
2018-04-28T03:43:20.555Z,1.20
2018-04-28T03:45:50.445Z,1.75
2018-04-28T03:48:19.500Z,1.73
2018-04-28T03:50:48.386Z,1.50
2018-04-28T03:53:19.139Z,2.42
2018-04-28T03:55:48.047Z,1.70
2018-04-28T03:58:22.887Z,1.60
2018-04-28T04:00:57.691Z,1.65
2018-04-28T04:03:26.794Z,2.20
2018-04-28T04:05:57.627Z,2.47
2018-04-28T04:08:36.549Z,1.60
2018-04-28T04:11:20.323Z,1.00
2018-04-28T04:13:51.099Z,1.75
2018-04-28T04:16:24.935Z,1.73
2018-04-28T04:19:09.914Z,1.75
2018-04-28T04:21:39.687Z,1.40
2018-04-28T04:24:09.478Z,1.80
2018-04-28T04:26:56.102Z,1.55
2018-04-28T04:29:31.039Z,2.10
2018-04-28T04:32:00.777Z,1.70
2018-04-28T04:34:45.419Z,2.00
2018-04-28T04:37:15.923Z,1.40
2018-04-28T04:39:45.798Z,1.60
2018-04-28T04:42:33.617Z,1.33
2018-04-28T04:45:08.405Z,1.60
2018-04-28T04:47:43.079Z,2.00
2018-04-28T04:50:21.891Z,2.15
2018-04-28T04:52:51.650Z,1.90
2018-04-28T04:55:21.327Z,1.42
2018-04-28T04:57:50.223Z,1.55
2018-04-28T05:00:38.486Z,1.70
2018-04-28T05:03:13.207Z,1.33
2018-04-28T05:05:47.966Z,1.95
2018-04-28T05:08:22.612Z,1.77
2018-04-28T05:10:57.334Z,2.60
2018-04-28T05:13:29.933Z,1.33
2018-04-28T05:16:04.702Z,2.12
2018-04-28T05:18:48.471Z,1.70
2018-04-28T05:21:23.218Z,2.10
2018-04-28T05:23:57.830Z,2.15
2018-04-28T05:26:43.611Z,1.45
2018-04-28T05:29:14.236Z,1.62
2018-04-28T05:32:02.101Z,1.50
2018-04-28T05:34:46.679Z,1.58
2018-04-28T05:37:30.575Z,1.70
2018-04-28T05:40:05.208Z,2.03
2018-04-28T05:42:39.959Z,2.72
2018-04-28T05:45:14.742Z,1.65
2018-04-28T05:47:49.632Z,1.40
2018-04-28T05:50:18.519Z,1.77
2018-04-28T05:52:53.578Z,1.70
2018-04-28T05:55:41.200Z,1.75
2018-04-28T05:58:15.918Z,1.65
2018-04-28T06:00:46.734Z,1.75
2018-04-28T06:03:21.534Z,1.30
2018-04-28T06:06:04.231Z,2.28
2018-04-28T06:08:33.262Z,1.40
2018-04-28T06:11:17.027Z,1.30
2018-04-28T06:13:52.059Z,1.55
2018-04-28T06:16:35.826Z,1.37
2018-04-28T06:19:23.626Z,1.67
2018-04-28T06:21:52.530Z,1.85
2018-04-28T06:24:21.430Z,2.10
2018-04-28T06:26:50.322Z,3.75
2018-04-28T06:29:19.203Z,1.58
2018-04-28T06:31:48.149Z,0.98
2018-04-28T06:34:17.038Z,1.35
2018-04-28T06:36:46.207Z,2.22
2018-04-28T06:39:15.095Z,1.58
2018-04-28T06:41:43.991Z,1.80
2018-04-28T06:44:12.942Z,1.50
2018-04-28T06:46:41.835Z,1.73
2018-04-28T06:49:10.910Z,1.55
2018-04-28T06:51:39.794Z,1.52
2018-04-28T06:54:08.679Z,1.45
2018-04-28T06:56:37.567Z,1.83
2018-04-28T06:59:06.455Z,1.50
2018-04-28T07:01:35.370Z,2.37
2018-04-28T07:04:04.267Z,1.83
2018-04-28T07:06:33.159Z,2.00
2018-04-28T07:09:02.072Z,1.60
2018-04-28T07:11:30.972Z,1.90
2018-04-28T07:13:59.863Z,1.90
2018-04-28T07:16:28.757Z,2.10
2018-04-28T07:18:57.831Z,1.80
2018-04-28T07:21:27.003Z,1.60
2018-04-28T07:23:55.891Z,1.85
2018-04-28T07:26:24.880Z,1.80
2018-04-28T07:28:53.771Z,1.70
2018-04-28T07:31:22.659Z,1.50
2018-04-28T07:33:51.542Z,2.00
2018-04-28T07:36:20.666Z,1.52
2018-04-28T07:38:49.555Z,1.20
2018-04-28T07:41:18.439Z,1.80
2018-04-28T07:43:47.330Z,2.33
2018-04-28T07:46:16.214Z,1.50
2018-04-28T07:48:45.158Z,1.15
2018-04-28T07:51:14.047Z,1.15
2018-04-28T07:53:42.935Z,1.60
2018-04-28T07:56:11.847Z,1.33
2018-04-28T07:58:40.743Z,1.37
2018-04-28T08:01:09.627Z,1.45
2018-04-28T08:03:38.510Z,1.40
2018-04-28T08:06:07.428Z,1.60
2018-04-28T08:08:36.319Z,1.48
2018-04-28T08:11:05.228Z,1.35
2018-04-28T08:13:34.181Z,1.23
2018-04-28T08:16:03.092Z,1.15
2018-04-28T08:18:31.982Z,1.10
2018-04-28T08:21:00.885Z,2.90
2018-04-28T08:23:29.778Z,1.30
2018-04-28T08:25:58.801Z,0.98
2018-04-28T08:28:27.698Z,0.80
2018-04-28T08:30:56.632Z,0.60
2018-04-28T08:33:25.519Z,1.10
2018-04-28T08:35:54.406Z,1.20
2018-04-28T08:38:23.636Z,1.20
2018-04-28T08:40:52.527Z,0.73
2018-04-28T08:43:21.415Z,0.75
2018-04-28T08:45:50.315Z,0.60
2018-04-28T08:48:19.339Z,0.90
2018-04-28T08:50:48.231Z,0.75
2018-04-28T08:53:17.122Z,1.05
2018-04-28T08:55:46.011Z,0.80
2018-04-28T08:58:14.900Z,0.95
2018-04-28T09:00:44.919Z,0.90
2018-04-28T09:03:13.810Z,0.65
2018-04-28T09:05:42.699Z,0.80
2018-04-28T09:08:11.602Z,0.73
2018-04-28T09:10:40.513Z,0.85
2018-04-28T09:13:09.758Z,0.82
2018-04-28T09:15:38.614Z,0.70
2018-04-28T09:18:07.506Z,0.65
2018-04-28T09:20:36.401Z,0.68
2018-04-28T09:23:05.293Z,0.73
2018-04-28T09:25:34.179Z,0.80
2018-04-28T09:28:03.071Z,0.90
2018-04-28T09:30:32.019Z,0.70
2018-04-28T09:33:00.936Z,0.77
2018-04-28T09:35:29.841Z,0.70
2018-04-28T09:37:58.766Z,0.70
2018-04-28T09:40:27.654Z,1.20
2018-04-28T09:42:56.542Z,2.80
2018-04-28T09:45:25.426Z,1.58
2018-04-28T09:47:54.362Z,0.90
2018-04-28T09:50:23.259Z,0.60
2018-04-28T09:52:52.154Z,0.93
2018-04-28T09:55:21.035Z,0.80
2018-04-28T09:57:55.679Z,0.95
2018-04-28T10:00:30.116Z,1.27
2018-04-28T10:02:59.007Z,1.00
2018-04-28T10:05:27.897Z,1.02
2018-04-28T10:07:56.784Z,1.00
2018-04-28T10:10:25.680Z,0.70
2018-04-28T10:12:54.572Z,0.82
2018-04-28T10:15:23.461Z,0.70
2018-04-28T10:17:52.674Z,0.50
2018-04-28T10:20:21.643Z,1.10
2018-04-28T10:22:50.475Z,0.85
2018-04-28T10:25:19.399Z,0.85
2018-04-28T10:27:48.290Z,0.93
2018-04-28T10:30:17.187Z,1.02
2018-04-28T10:32:46.087Z,0.60
2018-04-28T10:35:15.023Z,1.00
2018-04-28T10:37:43.911Z,0.90
2018-04-28T10:40:12.805Z,0.90
2018-04-28T10:42:41.807Z,0.60
2018-04-28T10:45:10.696Z,0.90
2018-04-28T10:47:39.587Z,0.82
2018-04-28T10:50:08.518Z,0.80
2018-04-28T10:52:37.412Z,0.90
2018-04-28T10:55:06.327Z,0.95
2018-04-28T10:57:35.555Z,0.65
2018-04-28T11:00:04.443Z,0.90
2018-04-28T11:02:33.339Z,1.20
2018-04-28T11:05:02.231Z,0.98
2018-04-28T11:07:31.127Z,1.33
2018-04-28T11:10:00.219Z,0.82
2018-04-28T11:12:29.109Z,0.70
2018-04-28T11:14:58.003Z,0.80
2018-04-28T11:17:26.918Z,1.10
2018-04-28T11:19:55.870Z,0.70
2018-04-28T11:22:24.724Z,1.00
2018-04-28T11:24:53.611Z,0.68
2018-04-28T11:27:22.499Z,0.70
2018-04-28T11:29:51.438Z,0.57
2018-04-28T11:32:20.326Z,0.77
2018-04-28T11:34:49.210Z,0.80
2018-04-28T11:37:18.124Z,0.80
2018-04-28T11:39:47.070Z,0.80
2018-04-28T11:42:16.103Z,0.52
2018-04-28T11:44:45.291Z,0.60
2018-04-28T11:47:14.406Z,1.02
2018-04-28T11:49:43.300Z,0.95
2018-04-28T11:52:12.202Z,1.00
2018-04-28T11:54:41.091Z,1.00
2018-04-28T11:57:10.159Z,0.70
2018-04-28T11:59:39.671Z,1.00
2018-04-28T12:02:08.555Z,0.80
2018-04-28T12:04:37.656Z,1.10
2018-04-28T12:07:06.547Z,1.05
2018-04-28T12:09:35.434Z,1.08
2018-04-28T12:12:04.330Z,1.20
2018-04-28T12:14:33.220Z,0.75
2018-04-28T12:17:02.321Z,1.48
2018-04-28T12:19:31.215Z,0.90
2018-04-28T12:22:00.103Z,0.90
2018-04-28T12:24:28.991Z,0.68
2018-04-28T12:26:57.875Z,1.55
2018-04-28T12:29:26.804Z,1.50
2018-04-28T12:31:55.700Z,0.90
2018-04-28T12:34:24.739Z,0.65
2018-04-28T12:36:53.628Z,1.25
2018-04-28T12:39:22.515Z,0.75
2018-04-28T12:41:51.471Z,1.05
2018-04-28T12:44:20.358Z,1.10
2018-04-28T12:46:49.243Z,0.80
2018-04-28T12:49:18.135Z,1.27
2018-04-28T12:51:47.030Z,1.10
2018-04-28T12:54:15.923Z,1.15
2018-04-28T12:56:44.970Z,1.30
2018-04-28T12:59:13.914Z,0.88
2018-04-28T13:01:42.804Z,1.25
2018-04-28T13:04:11.687Z,1.00
2018-04-28T13:06:40.571Z,1.30
2018-04-28T13:09:09.459Z,1.17
2018-04-28T13:11:38.350Z,1.40
2018-04-28T13:14:07.241Z,1.80
2018-04-28T13:16:36.163Z,1.52
2018-04-28T13:19:05.055Z,1.33
2018-04-28T13:21:33.945Z,1.30
2018-04-28T13:24:02.839Z,1.55
2018-04-28T13:26:31.728Z,1.17
2018-04-28T13:29:00.626Z,1.40
2018-04-28T13:31:29.510Z,1.10
2018-04-28T13:33:58.539Z,1.50
2018-04-28T13:36:27.427Z,1.50
2018-04-28T13:38:56.327Z,1.15
2018-04-28T13:41:25.214Z,1.87
2018-04-28T13:43:54.101Z,1.30
2018-04-28T13:46:23.202Z,1.60
2018-04-28T13:48:52.090Z,1.48
2018-04-28T13:51:20.981Z,1.08
2018-04-28T13:53:49.869Z,1.92
2018-04-28T13:56:18.754Z,1.95
2018-04-28T13:58:47.655Z,1.83
2018-04-28T14:01:16.574Z,1.80
2018-04-28T14:03:45.654Z,1.70
2018-04-28T14:06:14.538Z,1.25
2018-04-28T14:08:43.425Z,1.35
2018-04-28T14:11:12.311Z,0.95
2018-04-28T14:13:41.339Z,1.25
2018-04-28T14:16:10.235Z,1.17
2018-04-28T14:18:39.145Z,1.42
2018-04-28T14:21:08.113Z,1.20
2018-04-28T14:23:37.003Z,0.95
2018-04-28T14:26:05.891Z,1.25
2018-04-28T14:28:34.781Z,1.00
2018-04-28T14:31:03.670Z,1.20
2018-04-28T14:33:32.565Z,1.37
2018-04-28T14:36:01.462Z,1.15
2018-04-28T14:38:30.403Z,1.42
2018-04-28T14:40:59.407Z,1.37
2018-04-28T14:43:28.290Z,1.10
2018-04-28T14:45:57.179Z,1.15
2018-04-28T14:48:26.779Z,1.00
2018-04-28T14:50:55.666Z,1.40
2018-04-28T14:53:24.563Z,1.27
2018-04-28T14:55:53.583Z,1.00
2018-04-28T14:58:22.471Z,0.98
2018-04-28T15:00:51.363Z,1.00
2018-04-28T15:03:20.251Z,1.40
2018-04-28T15:05:49.139Z,1.15
2018-04-28T15:08:18.074Z,1.33
2018-04-28T15:10:46.958Z,1.48
2018-04-28T15:13:15.848Z,1.80
2018-04-28T15:15:44.739Z,2.22
2018-04-28T15:18:13.767Z,1.90
2018-04-28T15:20:42.654Z,1.98
2018-04-28T15:23:11.539Z,1.65
2018-04-28T15:25:40.494Z,1.80
2018-04-28T15:28:09.390Z,2.33
2018-04-28T15:30:38.319Z,2.30
2018-04-28T15:33:07.202Z,2.25
2018-04-28T15:35:36.120Z,2.55
2018-04-28T15:38:05.009Z,1.80
2018-04-28T15:40:34.007Z,1.90
2018-04-28T15:43:02.919Z,2.80
2018-04-28T15:45:31.810Z,2.10
2018-04-28T15:48:00.715Z,1.83
2018-04-28T15:50:29.760Z,2.40
2018-04-28T15:52:58.672Z,2.40
2018-04-28T15:55:27.566Z,1.77
2018-04-28T15:57:56.458Z,2.40
2018-04-28T16:00:25.394Z,2.55
2018-04-28T16:02:54.282Z,1.75
2018-04-28T16:05:23.171Z,2.10
2018-04-28T16:07:52.063Z,1.70
2018-04-28T16:10:20.952Z,1.40
2018-04-28T16:12:49.862Z,2.05
2018-04-28T16:15:18.957Z,2.30
2018-04-28T16:17:48.190Z,1.95
2018-04-28T16:20:17.091Z,1.75
2018-04-28T16:22:45.997Z,1.40
2018-04-28T16:25:14.888Z,2.20
2018-04-28T16:27:43.791Z,2.17
2018-04-28T16:30:12.690Z,1.98
2018-04-28T16:32:41.575Z,1.90
2018-04-28T16:35:10.682Z,1.60
2018-04-28T16:37:39.566Z,1.70
2018-04-28T16:40:08.465Z,1.30
2018-04-28T16:42:37.355Z,1.58
2018-04-28T16:45:06.238Z,1.50
2018-04-28T16:47:35.129Z,1.70
2018-04-28T16:50:04.019Z,1.50
2018-04-28T16:52:32.902Z,1.73
2018-04-28T16:55:01.865Z,1.60
2018-04-28T16:57:31.062Z,1.75
2018-04-28T16:59:59.952Z,1.60
2018-04-28T17:02:28.855Z,1.92
2018-04-28T17:04:57.754Z,1.48
2018-04-28T17:07:26.645Z,1.92
2018-04-28T17:09:55.535Z,1.92
2018-04-28T17:12:24.418Z,2.03
2018-04-28T17:14:53.712Z,2.15
2018-04-28T17:17:29.683Z,1.90
2018-04-28T17:19:58.596Z,2.05
2018-04-28T17:22:27.518Z,2.40
2018-04-28T17:24:56.494Z,1.55
2018-04-28T17:27:25.326Z,2.60
2018-04-28T17:29:54.220Z,2.30
2018-04-28T17:32:23.110Z,2.60
2018-04-28T17:34:52.001Z,2.40
2018-04-28T17:37:20.954Z,3.08
2018-04-28T17:39:49.854Z,2.22
2018-04-28T17:42:18.738Z,2.42
2018-04-28T17:44:47.627Z,2.47
2018-04-28T17:47:16.630Z,2.17
2018-04-28T17:49:45.523Z,2.65
2018-04-28T17:52:14.434Z,2.15
2018-04-28T17:54:43.376Z,3.12
2018-04-28T17:57:12.262Z,2.85
2018-04-28T17:59:41.146Z,3.17
2018-04-28T18:02:10.067Z,3.70
2018-04-28T18:04:38.961Z,5.68
2018-04-28T18:07:08.184Z,4.25
2018-04-28T18:09:37.111Z,3.45
2018-04-28T18:12:05.999Z,4.03
2018-04-28T18:14:34.940Z,3.30
2018-04-28T18:17:03.816Z,3.62
2018-04-28T18:19:32.734Z,3.60
2018-04-28T18:22:01.632Z,3.97
2018-04-28T18:24:30.830Z,4.00
2018-04-28T18:26:59.719Z,4.22
2018-04-28T18:29:28.818Z,3.53
2018-04-28T18:31:57.754Z,3.70
2018-04-28T18:34:26.643Z,4.30
2018-04-28T18:36:55.528Z,3.10
2018-04-28T18:39:24.432Z,11.57
2018-04-28T18:41:53.339Z,4.72
2018-04-28T18:44:22.374Z,4.25
2018-04-28T18:46:51.271Z,3.90
2018-04-28T18:49:20.155Z,3.72
2018-04-28T18:51:49.127Z,19.25
2018-04-28T18:54:18.004Z,4.50
2018-04-28T18:56:46.895Z,4.25
2018-04-28T18:59:15.918Z,5.30
2018-04-28T19:01:44.844Z,4.22
2018-04-28T19:04:13.968Z,4.55
2018-04-28T19:06:42.856Z,4.90
2018-04-28T19:09:11.756Z,3.80
2018-04-28T19:11:40.991Z,4.62
2018-04-28T19:14:09.886Z,4.68
2018-04-28T19:16:38.798Z,4.00
2018-04-28T19:19:07.691Z,3.60
2018-04-28T19:21:36.587Z,3.60
2018-04-28T19:24:05.540Z,3.00
2018-04-28T19:26:34.426Z,4.20
2018-04-28T19:29:03.314Z,3.45
2018-04-28T19:31:32.203Z,3.78
2018-04-28T19:34:01.207Z,4.05
2018-04-28T19:36:30.135Z,3.22
2018-04-28T19:38:59.028Z,4.35
2018-04-28T19:41:27.910Z,3.60
2018-04-28T19:43:56.953Z,4.05
2018-04-28T19:46:25.848Z,4.70
2018-04-28T19:48:54.731Z,3.80
2018-04-28T19:51:23.627Z,4.37
2018-04-28T19:53:52.530Z,4.57
2018-04-28T19:56:21.438Z,5.05
2018-04-28T19:58:50.328Z,4.00
2018-04-28T20:01:19.218Z,5.05
2018-04-28T20:03:48.166Z,4.75
2018-04-28T20:06:17.061Z,4.40
2018-04-28T20:08:45.950Z,3.62
2018-04-28T20:11:14.888Z,4.47
2018-04-28T20:13:43.778Z,4.25
2018-04-28T20:16:12.675Z,4.40
2018-04-28T20:18:41.867Z,5.37
2018-04-28T20:21:10.955Z,4.50
2018-04-28T20:23:45.983Z,5.00
2018-04-28T20:26:14.874Z,4.82
2018-04-28T20:28:43.763Z,6.05
2018-04-28T20:31:12.861Z,4.78
2018-04-28T20:33:41.754Z,4.10
2018-04-28T20:36:10.734Z,4.80
2018-04-28T20:38:39.786Z,4.10
2018-04-28T20:41:08.835Z,4.35
2018-04-28T20:43:37.719Z,4.75
2018-04-28T20:46:06.815Z,4.20
2018-04-28T20:48:35.709Z,4.43
2018-04-28T20:51:04.603Z,5.03
2018-04-28T20:53:33.545Z,4.35
2018-04-28T20:56:02.435Z,4.53
2018-04-28T20:58:31.319Z,4.82
2018-04-28T21:01:00.219Z,5.07
2018-04-28T21:03:29.121Z,4.30
2018-04-28T21:05:58.415Z,4.50
2018-04-28T21:08:27.299Z,4.25
2018-04-28T21:10:56.185Z,4.05
2018-04-28T21:13:25.075Z,5.15
2018-04-28T21:15:53.960Z,5.12
2018-04-28T21:18:23.214Z,4.10
2018-04-28T21:20:52.098Z,4.95
2018-04-28T21:23:20.984Z,4.30
2018-04-28T21:25:50.091Z,4.55
2018-04-28T21:28:18.978Z,4.55
2018-04-28T21:30:47.865Z,4.00
2018-04-28T21:33:16.759Z,4.05
2018-04-28T21:35:45.686Z,4.10
2018-04-28T21:38:14.619Z,4.20
2018-04-28T21:40:43.526Z,4.43
2018-04-28T21:43:12.411Z,3.45
2018-04-28T21:45:41.475Z,4.05
2018-04-28T21:48:10.359Z,4.00
2018-04-28T21:50:39.267Z,4.22
2018-04-28T21:53:08.202Z,4.40
2018-04-28T21:55:37.087Z,4.00
2018-04-28T21:58:05.981Z,4.22
2018-04-28T22:00:34.921Z,3.83
2018-04-28T22:03:03.811Z,3.95
2018-04-28T22:05:32.695Z,4.15
2018-04-28T22:08:01.602Z,3.62
2018-04-28T22:10:30.487Z,3.15
2018-04-28T22:12:59.626Z,4.68
2018-04-28T22:15:28.511Z,4.05
2018-04-28T22:17:57.395Z,4.22
2018-04-28T22:20:26.274Z,4.22
2018-04-28T22:22:55.160Z,4.57
2018-04-28T22:25:24.074Z,3.95
2018-04-28T22:27:52.959Z,4.30
2018-04-28T22:30:21.855Z,4.25
2018-04-28T22:32:50.786Z,4.28
2018-04-28T22:35:19.674Z,3.50
2018-04-28T22:37:48.558Z,4.45
2018-04-28T22:40:17.446Z,4.12
2018-04-28T22:42:46.343Z,4.03
2018-04-28T22:45:15.415Z,4.05
2018-04-28T22:47:44.347Z,3.90
2018-04-28T22:50:13.231Z,4.82
2018-04-28T22:52:42.116Z,5.22
2018-04-28T22:55:11.002Z,4.60
2018-04-28T22:57:40.076Z,4.30
2018-04-28T23:00:08.963Z,3.65
2018-04-28T23:02:37.847Z,3.47
2018-04-28T23:05:06.736Z,3.87
2018-04-28T23:07:35.623Z,4.35
2018-04-28T23:10:04.558Z,3.97
2018-04-28T23:12:33.446Z,4.53
2018-04-28T23:15:02.337Z,4.55
2018-04-28T23:17:31.246Z,3.85
2018-04-28T23:20:00.141Z,3.78
2018-04-28T23:22:29.023Z,4.60
2018-04-28T23:24:57.910Z,4.30
2018-04-28T23:27:26.790Z,4.00
2018-04-28T23:29:56.058Z,4.30
2018-04-28T23:32:24.943Z,3.83
2018-04-28T23:34:53.822Z,4.20
2018-04-28T23:37:22.758Z,4.20
2018-04-28T23:39:51.638Z,4.25
2018-04-28T23:42:20.523Z,3.97
2018-04-28T23:44:49.603Z,4.68
2018-04-28T23:47:18.483Z,4.80
2018-04-28T23:49:47.366Z,4.37
2018-04-28T23:52:16.526Z,4.10
2018-04-28T23:54:45.415Z,4.70
2018-04-28T23:57:14.301Z,4.03
2018-04-28T23:59:43.187Z,4.62
